createdAt,value
2023-05-13T00:00:34.037Z,15.45
2023-05-13T00:03:00.966Z,15.68
2023-05-13T00:05:27.820Z,16.10
2023-05-13T00:07:55.033Z,16.13
2023-05-13T00:10:22.124Z,14.80
2023-05-13T00:12:49.135Z,15.95
2023-05-13T00:15:15.953Z,15.93
2023-05-13T00:17:42.839Z,16.08
2023-05-13T00:20:09.879Z,14.90
2023-05-13T00:22:36.598Z,15.00
2023-05-13T00:25:04.342Z,15.73
2023-05-13T00:27:33.108Z,15.95
2023-05-13T00:30:03.089Z,15.75
2023-05-13T00:32:29.942Z,15.55
2023-05-13T00:34:56.787Z,15.63
2023-05-13T00:37:23.594Z,15.82
2023-05-13T00:39:50.420Z,14.50
2023-05-13T00:42:17.366Z,15.55
2023-05-13T00:44:44.194Z,16.02
2023-05-13T00:47:12.301Z,16.13
2023-05-13T00:49:39.414Z,15.88
2023-05-13T00:52:06.478Z,16.23
2023-05-13T00:54:33.554Z,16.13
2023-05-13T00:57:00.371Z,15.27
2023-05-13T00:59:29.513Z,17.70
2023-05-13T01:02:22.505Z,16.60
2023-05-13T01:05:22.659Z,15.95
2023-05-13T01:08:29.595Z,14.38
2023-05-13T01:11:04.089Z,15.45
2023-05-13T01:13:40.074Z,16.00
2023-05-13T01:16:39.915Z,16.25
2023-05-13T01:19:29.609Z,14.80
2023-05-13T01:21:56.649Z,15.15
2023-05-13T01:24:23.431Z,15.48
2023-05-13T01:26:50.336Z,15.77
2023-05-13T01:29:17.338Z,16.08
2023-05-13T01:31:46.526Z,16.30
2023-05-13T01:34:16.269Z,15.63
2023-05-13T01:36:44.292Z,16.27
2023-05-13T01:39:12.428Z,15.07
2023-05-13T01:41:39.216Z,15.43
2023-05-13T01:44:06.664Z,15.80
2023-05-13T01:46:33.572Z,16.45
2023-05-13T01:49:00.479Z,17.67
2023-05-13T01:51:27.243Z,15.88
2023-05-13T01:53:53.950Z,16.27
2023-05-13T01:56:21.505Z,15.98
2023-05-13T01:58:48.265Z,16.25
2023-05-13T02:01:15.053Z,17.00
2023-05-13T02:03:41.949Z,17.90
2023-05-13T02:06:08.720Z,16.60
2023-05-13T02:08:35.482Z,16.70
2023-05-13T02:11:02.316Z,17.33
2023-05-13T02:13:29.254Z,16.00
2023-05-13T02:15:56.251Z,16.42
2023-05-13T02:18:23.097Z,15.75
2023-05-13T02:20:50.160Z,16.40
2023-05-13T02:23:17.834Z,16.25
2023-05-13T02:25:44.852Z,16.20
2023-05-13T02:28:11.681Z,16.15
2023-05-13T02:30:38.508Z,16.77
2023-05-13T02:33:05.304Z,16.83
2023-05-13T02:35:32.058Z,16.88
2023-05-13T02:37:58.791Z,16.13
2023-05-13T02:40:25.592Z,17.55
2023-05-13T02:42:52.426Z,15.98
2023-05-13T02:45:19.254Z,16.08
2023-05-13T02:47:48.960Z,17.60
2023-05-13T02:50:15.838Z,16.88
2023-05-13T02:52:42.645Z,17.08
2023-05-13T02:55:10.025Z,17.42
2023-05-13T02:57:38.044Z,16.52
2023-05-13T03:00:06.045Z,15.98
2023-05-13T03:02:33.858Z,17.00
2023-05-13T03:05:00.744Z,16.25
2023-05-13T03:07:27.525Z,15.70
2023-05-13T03:09:54.375Z,15.35
2023-05-13T03:12:21.253Z,15.45
2023-05-13T03:14:48.078Z,15.02
2023-05-13T03:17:14.870Z,16.52
2023-05-13T03:19:41.636Z,15.77
2023-05-13T03:22:08.362Z,17.05
2023-05-13T03:24:35.257Z,16.00
2023-05-13T03:27:02.085Z,16.65
2023-05-13T03:29:28.823Z,17.48
2023-05-13T03:31:55.625Z,16.70
2023-05-13T03:34:22.417Z,17.10
2023-05-13T03:36:49.285Z,15.77
2023-05-13T03:39:16.579Z,16.45
2023-05-13T03:41:43.394Z,16.67
2023-05-13T03:44:10.123Z,18.33
2023-05-13T03:46:36.919Z,16.92
2023-05-13T03:49:03.685Z,16.98
2023-05-13T03:51:31.413Z,17.13
2023-05-13T03:53:58.188Z,16.70
2023-05-13T03:56:25.293Z,17.40
2023-05-13T03:58:52.051Z,19.30
2023-05-13T04:01:18.777Z,18.92
2023-05-13T04:03:46.695Z,18.33
2023-05-13T04:06:14.844Z,16.63
2023-05-13T04:08:42.160Z,17.60
2023-05-13T04:11:08.861Z,16.48
2023-05-13T04:13:36.414Z,16.67
2023-05-13T04:16:03.816Z,16.63
2023-05-13T04:18:32.312Z,17.08
2023-05-13T04:20:59.071Z,16.70
2023-05-13T04:23:26.012Z,17.15
2023-05-13T04:25:52.840Z,16.50
2023-05-13T04:28:20.995Z,16.13
2023-05-13T04:30:47.731Z,16.33
2023-05-13T04:33:14.574Z,16.13
2023-05-13T04:35:41.393Z,15.00
2023-05-13T04:38:08.402Z,14.93
2023-05-13T04:40:35.264Z,15.43
2023-05-13T04:43:02.048Z,15.88
2023-05-13T04:45:28.836Z,16.42
2023-05-13T04:47:58.335Z,16.10
2023-05-13T04:50:25.429Z,14.73
2023-05-13T04:52:54.940Z,14.85
2023-05-13T04:55:22.761Z,15.13
2023-05-13T04:57:49.931Z,14.70
2023-05-13T05:00:17.051Z,13.45
2023-05-13T05:02:43.821Z,14.10
2023-05-13T05:05:10.578Z,13.63
2023-05-13T05:07:40.722Z,13.98
2023-05-13T05:10:08.984Z,13.55
2023-05-13T05:12:35.921Z,13.30
2023-05-13T05:15:02.670Z,13.77
2023-05-13T05:17:32.956Z,13.05
2023-05-13T05:20:00.169Z,12.88
2023-05-13T05:22:27.264Z,12.88
2023-05-13T05:24:54.082Z,13.40
2023-05-13T05:27:20.809Z,13.52
2023-05-13T05:29:47.575Z,12.57
2023-05-13T05:32:14.566Z,12.90
2023-05-13T05:34:41.430Z,12.75
2023-05-13T05:37:08.504Z,13.88
2023-05-13T05:39:35.628Z,13.05
2023-05-13T05:42:02.708Z,11.40
2023-05-13T05:44:29.567Z,13.52
2023-05-13T05:46:56.327Z,11.70
2023-05-13T05:49:23.077Z,12.38
2023-05-13T05:51:49.919Z,11.40
2023-05-13T05:54:16.849Z,11.85
2023-05-13T05:56:43.656Z,10.75
2023-05-13T05:59:10.391Z,10.23
2023-05-13T06:01:37.369Z,10.18
2023-05-13T06:04:04.733Z,10.48
2023-05-13T06:06:32.592Z,10.77
2023-05-13T06:08:59.435Z,10.18
2023-05-13T06:11:26.497Z,8.50
2023-05-13T06:13:54.401Z,9.07
2023-05-13T06:16:21.177Z,8.45
2023-05-13T06:18:49.289Z,8.20
2023-05-13T06:21:16.114Z,8.68
2023-05-13T06:23:42.940Z,8.10
2023-05-13T06:26:09.656Z,8.40
2023-05-13T06:28:36.499Z,7.20
2023-05-13T06:31:03.375Z,6.25
2023-05-13T06:33:30.234Z,6.45
2023-05-13T06:35:57.017Z,6.40
2023-05-13T06:38:23.884Z,5.93
2023-05-13T06:40:50.655Z,5.00
2023-05-13T06:43:18.366Z,4.57
2023-05-13T06:45:45.182Z,5.28
2023-05-13T06:48:13.452Z,4.50
2023-05-13T06:50:40.272Z,4.80
2023-05-13T06:53:07.359Z,4.00
2023-05-13T06:55:36.204Z,4.85
2023-05-13T06:58:02.909Z,4.50
2023-05-13T07:00:29.844Z,3.88
2023-05-13T07:02:56.659Z,3.90
2023-05-13T07:05:23.605Z,4.47
2023-05-13T07:07:53.882Z,4.28
2023-05-13T07:10:21.221Z,4.00
2023-05-13T07:12:48.131Z,4.22
2023-05-13T07:15:14.892Z,4.05
2023-05-13T07:17:41.796Z,3.53
2023-05-13T07:20:09.733Z,4.15
2023-05-13T07:22:36.525Z,4.05
2023-05-13T07:25:03.376Z,3.42
2023-05-13T07:27:30.140Z,3.70
2023-05-13T07:29:57.039Z,3.50
2023-05-13T07:32:23.855Z,3.80
2023-05-13T07:34:51.522Z,3.65
2023-05-13T07:37:18.422Z,3.10
2023-05-13T07:39:45.190Z,3.28
2023-05-13T07:42:11.956Z,3.63
2023-05-13T07:44:38.705Z,3.20
2023-05-13T07:47:05.591Z,3.83
2023-05-13T07:49:32.488Z,2.90
2023-05-13T07:51:59.251Z,3.63
2023-05-13T07:54:26.005Z,3.15
2023-05-13T07:56:52.812Z,3.05
2023-05-13T07:59:19.909Z,2.92
2023-05-13T08:01:46.757Z,3.03
2023-05-13T08:04:13.622Z,3.15
2023-05-13T08:06:40.585Z,2.80
2023-05-13T08:09:09.552Z,2.75
2023-05-13T08:11:36.773Z,2.85
2023-05-13T08:14:03.572Z,3.10
2023-05-13T08:16:30.590Z,3.10
2023-05-13T08:18:57.846Z,3.42
2023-05-13T08:21:24.642Z,2.55
2023-05-13T08:23:52.326Z,2.90
2023-05-13T08:26:19.163Z,3.03
2023-05-13T08:28:46.506Z,2.80
2023-05-13T08:31:13.928Z,3.40
2023-05-13T08:33:46.249Z,3.33
2023-05-13T08:36:13.244Z,3.67
2023-05-13T08:38:40.265Z,3.53
2023-05-13T08:41:07.072Z,3.30
2023-05-13T08:43:34.444Z,3.67
2023-05-13T08:46:04.463Z,3.30
2023-05-13T08:48:32.567Z,3.58
2023-05-13T08:51:01.310Z,3.25
2023-05-13T08:53:29.040Z,3.20
2023-05-13T08:55:56.566Z,3.20
2023-05-13T08:58:23.622Z,3.25
2023-05-13T09:00:52.263Z,3.53
2023-05-13T09:03:19.914Z,3.95
2023-05-13T09:05:46.812Z,3.80
2023-05-13T09:08:14.197Z,3.17
2023-05-13T09:10:41.334Z,3.25
2023-05-13T09:13:08.137Z,3.70
2023-05-13T09:15:34.966Z,3.35
2023-05-13T09:18:04.981Z,3.30
2023-05-13T09:20:32.834Z,4.22
2023-05-13T09:23:11.242Z,3.60
2023-05-13T09:25:39.087Z,3.58
2023-05-13T09:28:08.031Z,4.07
2023-05-13T09:30:40.387Z,3.42
2023-05-13T09:33:17.734Z,3.70
2023-05-13T09:35:49.276Z,3.70
2023-05-13T09:38:39.344Z,3.22
2023-05-13T09:41:06.615Z,3.28
2023-05-13T09:43:34.372Z,3.13
2023-05-13T09:46:02.327Z,3.35
2023-05-13T09:48:31.685Z,3.90
2023-05-13T09:50:59.567Z,3.47
2023-05-13T09:53:28.022Z,3.47
2023-05-13T09:55:56.940Z,3.30
2023-05-13T09:58:25.674Z,3.55
2023-05-13T10:00:52.864Z,3.65
2023-05-13T10:03:19.804Z,3.42
2023-05-13T10:05:48.725Z,3.20
2023-05-13T10:08:15.854Z,3.30
2023-05-13T10:10:46.330Z,3.10
2023-05-13T10:13:19.592Z,3.13
2023-05-13T10:15:51.645Z,3.15
2023-05-13T10:18:20.062Z,3.42
2023-05-13T10:20:47.812Z,3.60
2023-05-13T10:23:14.687Z,3.60
2023-05-13T10:25:43.418Z,3.22
2023-05-13T10:28:11.061Z,5.18
2023-05-13T10:30:38.537Z,3.65
2023-05-13T10:33:05.734Z,3.33
2023-05-13T10:35:40.420Z,3.10
2023-05-13T10:38:24.207Z,3.30
2023-05-13T10:40:53.902Z,3.70
2023-05-13T10:43:22.459Z,3.53
2023-05-13T10:45:52.114Z,3.20
2023-05-13T10:48:19.317Z,3.50
2023-05-13T10:50:54.902Z,3.38
2023-05-13T10:53:28.460Z,3.40
2023-05-13T10:56:00.140Z,3.50
2023-05-13T10:58:35.264Z,3.35
2023-05-13T11:01:17.113Z,3.28
2023-05-13T11:03:59.233Z,2.83
2023-05-13T11:06:41.354Z,3.22
2023-05-13T11:09:12.828Z,2.78
2023-05-13T11:11:40.279Z,3.10
2023-05-13T11:14:17.473Z,2.60
2023-05-13T11:17:02.294Z,3.08
2023-05-13T11:19:31.415Z,2.97
2023-05-13T11:22:18.450Z,3.47
2023-05-13T11:24:46.802Z,2.70
2023-05-13T11:27:18.765Z,3.30
2023-05-13T11:29:55.048Z,3.13
2023-05-13T11:32:59.719Z,3.17
2023-05-13T11:35:33.220Z,3.45
2023-05-13T11:38:01.576Z,3.00
2023-05-13T11:40:35.226Z,2.83
2023-05-13T11:43:02.782Z,3.00
2023-05-13T11:45:30.568Z,3.28
2023-05-13T11:47:58.086Z,3.13
2023-05-13T11:50:33.185Z,3.13
2023-05-13T11:53:01.671Z,3.30
2023-05-13T11:55:31.360Z,3.28
2023-05-13T11:57:59.425Z,3.17
2023-05-13T12:00:31.246Z,2.95
2023-05-13T12:02:59.511Z,3.63
2023-05-13T12:05:27.505Z,3.28
2023-05-13T12:07:58.614Z,3.30
2023-05-13T12:10:26.700Z,3.40
2023-05-13T12:12:54.194Z,3.35
2023-05-13T12:15:22.582Z,3.72
2023-05-13T12:17:50.303Z,3.33
2023-05-13T12:20:21.301Z,3.33
2023-05-13T12:22:48.430Z,3.42
2023-05-13T12:25:33.679Z,3.30
2023-05-13T12:28:06.538Z,3.40
2023-05-13T12:30:37.701Z,3.65
2023-05-13T12:33:08.230Z,3.40
2023-05-13T12:35:35.196Z,3.38
2023-05-13T12:38:04.071Z,3.80
2023-05-13T12:40:31.655Z,3.70
2023-05-13T12:42:59.408Z,2.90
2023-05-13T12:45:30.943Z,3.85
2023-05-13T12:47:59.207Z,3.33
2023-05-13T12:50:26.719Z,3.50
2023-05-13T12:52:54.622Z,3.30
2023-05-13T12:55:22.148Z,3.40
2023-05-13T12:58:02.431Z,3.40
2023-05-13T13:00:30.290Z,3.25
2023-05-13T13:02:57.782Z,2.95
2023-05-13T13:05:25.470Z,3.50
2023-05-13T13:07:52.384Z,3.30
2023-05-13T13:10:19.368Z,3.55
2023-05-13T13:12:46.277Z,3.30
2023-05-13T13:15:13.169Z,2.90
2023-05-13T13:17:40.162Z,3.15
2023-05-13T13:20:07.697Z,3.08
2023-05-13T13:22:37.347Z,3.20
2023-05-13T13:25:05.877Z,3.28
2023-05-13T13:27:33.877Z,2.92
2023-05-13T13:30:00.852Z,2.53
2023-05-13T13:32:27.737Z,2.50
2023-05-13T13:34:54.638Z,2.45
2023-05-13T13:37:21.469Z,2.40
2023-05-13T13:39:48.238Z,2.60
2023-05-13T13:42:14.975Z,2.35
2023-05-13T13:44:43.307Z,2.50
2023-05-13T13:47:10.445Z,2.25
2023-05-13T13:49:37.325Z,2.50
2023-05-13T13:52:04.327Z,2.45
2023-05-13T13:54:31.063Z,2.30
2023-05-13T13:56:57.904Z,2.40
2023-05-13T13:59:24.778Z,2.13
2023-05-13T14:01:51.671Z,2.10
2023-05-13T14:04:23.969Z,2.30
2023-05-13T14:06:51.517Z,2.38
2023-05-13T14:09:18.792Z,2.20
2023-05-13T14:11:45.881Z,2.20
2023-05-13T14:14:12.934Z,2.30
2023-05-13T14:16:40.221Z,2.10
2023-05-13T14:19:07.097Z,2.17
2023-05-13T14:21:33.991Z,2.20
2023-05-13T14:24:00.763Z,2.20
2023-05-13T14:26:27.843Z,2.40
2023-05-13T14:28:54.777Z,2.22
2023-05-13T14:31:21.562Z,2.22
2023-05-13T14:33:48.502Z,2.20
2023-05-13T14:36:16.508Z,3.03
2023-05-13T14:38:45.690Z,3.13
2023-05-13T14:41:12.863Z,3.53
2023-05-13T14:43:39.662Z,3.75
2023-05-13T14:46:06.466Z,3.67
2023-05-13T14:48:33.216Z,3.80
2023-05-13T14:50:59.986Z,3.50
2023-05-13T14:53:26.827Z,3.65
2023-05-13T14:55:53.753Z,3.78
2023-05-13T14:58:20.693Z,3.45
2023-05-13T15:00:48.925Z,3.83
2023-05-13T15:03:16.023Z,3.88
2023-05-13T15:05:44.111Z,3.85
2023-05-13T15:08:11.200Z,3.70
2023-05-13T15:10:37.929Z,3.80
2023-05-13T15:13:04.663Z,3.35
2023-05-13T15:15:32.308Z,3.50
2023-05-13T15:17:59.223Z,3.90
2023-05-13T15:20:26.136Z,3.75
2023-05-13T15:22:52.876Z,3.90
2023-05-13T15:25:19.614Z,4.00
2023-05-13T15:27:46.865Z,3.85
2023-05-13T15:30:13.785Z,3.90
2023-05-13T15:32:40.773Z,4.13
2023-05-13T15:35:07.874Z,3.67
2023-05-13T15:37:34.625Z,4.00
2023-05-13T15:40:01.408Z,4.30
2023-05-13T15:42:28.831Z,3.60
2023-05-13T15:44:55.628Z,3.90
2023-05-13T15:47:22.483Z,3.97
2023-05-13T15:49:50.939Z,3.90
2023-05-13T15:52:17.690Z,4.07
2023-05-13T15:54:44.467Z,4.20
2023-05-13T15:57:11.223Z,4.30
2023-05-13T15:59:38.005Z,3.95
2023-05-13T16:02:05.040Z,4.63
2023-05-13T16:04:31.966Z,4.50
2023-05-13T16:06:58.786Z,4.30
2023-05-13T16:09:25.538Z,3.80
2023-05-13T16:11:52.336Z,3.97
2023-05-13T16:14:19.617Z,4.00
2023-05-13T16:16:46.716Z,4.40
2023-05-13T16:19:13.676Z,2.40
2023-05-13T16:21:41.995Z,3.15
2023-05-13T16:24:08.830Z,2.67
2023-05-13T16:26:35.711Z,2.38
2023-05-13T16:29:02.441Z,2.30
2023-05-13T16:31:29.240Z,2.25
2023-05-13T16:33:56.106Z,1.85
2023-05-13T16:36:23.293Z,2.55
2023-05-13T16:38:50.281Z,2.10
2023-05-13T16:41:17.086Z,1.90
2023-05-13T16:43:43.822Z,1.83
2023-05-13T16:46:10.750Z,1.83
2023-05-13T16:48:37.591Z,1.90
2023-05-13T16:51:04.660Z,1.98
2023-05-13T16:53:31.433Z,1.75
2023-05-13T16:55:58.283Z,1.92
2023-05-13T16:58:25.106Z,1.80
2023-05-13T17:00:52.813Z,1.95
2023-05-13T17:03:19.932Z,1.90
2023-05-13T17:05:46.806Z,1.98
2023-05-13T17:08:13.558Z,1.98
2023-05-13T17:10:40.410Z,1.88
2023-05-13T17:13:07.177Z,1.98
2023-05-13T17:15:33.931Z,1.95
2023-05-13T17:18:00.884Z,1.90
2023-05-13T17:20:27.745Z,2.40
2023-05-13T17:22:54.517Z,2.10
2023-05-13T17:25:21.241Z,1.88
2023-05-13T17:27:48.018Z,1.95
2023-05-13T17:30:16.237Z,1.88
2023-05-13T17:32:43.333Z,2.20
2023-05-13T17:35:10.452Z,2.50
2023-05-13T17:37:37.161Z,2.20
2023-05-13T17:40:04.219Z,2.08
2023-05-13T17:42:31.630Z,2.30
2023-05-13T17:44:58.427Z,2.10
2023-05-13T17:47:25.324Z,2.10
2023-05-13T17:49:52.061Z,1.92
2023-05-13T17:52:18.835Z,2.20
2023-05-13T17:54:45.667Z,2.00
2023-05-13T17:57:12.506Z,2.30
2023-05-13T17:59:39.289Z,2.10
2023-05-13T18:02:06.291Z,2.20
2023-05-13T18:04:33.126Z,2.10
2023-05-13T18:06:59.824Z,2.72
2023-05-13T18:09:26.680Z,2.60
2023-05-13T18:11:53.663Z,2.10
2023-05-13T18:14:20.410Z,2.15
2023-05-13T18:16:47.514Z,2.30
2023-05-13T18:19:14.371Z,2.50
2023-05-13T18:21:41.420Z,2.72
2023-05-13T18:24:08.386Z,2.20
2023-05-13T18:26:35.110Z,2.38
2023-05-13T18:29:02.168Z,2.88
2023-05-13T18:31:29.183Z,2.85
2023-05-13T18:33:55.959Z,3.10
2023-05-13T18:36:22.741Z,2.72
2023-05-13T18:38:49.552Z,2.72
2023-05-13T18:41:16.292Z,2.60
2023-05-13T18:43:43.066Z,2.60
2023-05-13T18:46:09.994Z,2.90
2023-05-13T18:48:36.806Z,2.95
2023-05-13T18:51:03.652Z,2.83
2023-05-13T18:53:30.472Z,2.60
2023-05-13T18:55:57.407Z,2.83
2023-05-13T18:58:24.245Z,3.47
2023-05-13T19:00:51.948Z,3.10
2023-05-13T19:03:18.784Z,2.60
2023-05-13T19:05:45.643Z,2.75
2023-05-13T19:08:12.402Z,3.05
2023-05-13T19:10:40.156Z,2.63
2023-05-13T19:13:07.522Z,2.70
2023-05-13T19:15:34.570Z,2.70
2023-05-13T19:18:01.516Z,2.88
2023-05-13T19:20:29.542Z,2.90
2023-05-13T19:22:56.349Z,3.00
2023-05-13T19:25:23.152Z,2.88
2023-05-13T19:27:50.132Z,2.95
2023-05-13T19:30:16.990Z,3.30
2023-05-13T19:32:44.141Z,3.33
2023-05-13T19:35:11.631Z,7.65
2023-05-13T19:37:38.707Z,3.72
2023-05-13T19:40:06.286Z,5.68
2023-05-13T19:42:33.198Z,3.78
2023-05-13T19:44:59.963Z,3.38
2023-05-13T19:47:27.423Z,3.90
2023-05-13T19:49:54.160Z,7.50
2023-05-13T19:52:21.133Z,2.92
2023-05-13T19:54:47.958Z,3.10
2023-05-13T19:57:14.711Z,4.40
2023-05-13T19:59:42.032Z,6.75
2023-05-13T20:02:09.379Z,3.58
2023-05-13T20:04:36.362Z,3.55
2023-05-13T20:07:03.320Z,3.58
2023-05-13T20:09:30.840Z,3.70
2023-05-13T20:12:00.669Z,3.30
2023-05-13T20:14:45.533Z,3.35
2023-05-13T20:17:17.015Z,3.30
2023-05-13T20:19:44.059Z,3.72
2023-05-13T20:22:10.908Z,3.80
2023-05-13T20:24:37.659Z,3.53
2023-05-13T20:27:04.909Z,3.60
2023-05-13T20:29:39.000Z,3.58
2023-05-13T20:32:06.886Z,3.40
2023-05-13T20:34:34.961Z,3.95
2023-05-13T20:37:01.957Z,4.35
2023-05-13T20:39:31.561Z,3.90
2023-05-13T20:41:58.408Z,3.50
2023-05-13T20:44:25.345Z,4.10
2023-05-13T20:46:52.085Z,4.28
2023-05-13T20:49:19.339Z,3.85
2023-05-13T20:51:47.927Z,4.30
2023-05-13T20:54:15.287Z,4.18
2023-05-13T20:56:42.476Z,5.50
2023-05-13T20:59:09.740Z,4.30
2023-05-13T21:01:36.630Z,4.18
2023-05-13T21:04:06.220Z,4.30
2023-05-13T21:06:33.337Z,4.00
2023-05-13T21:09:00.380Z,5.70
2023-05-13T21:11:27.321Z,4.18
2023-05-13T21:13:54.090Z,4.95
2023-05-13T21:16:20.991Z,4.43
2023-05-13T21:18:47.872Z,5.28
2023-05-13T21:21:15.062Z,4.88
2023-05-13T21:23:45.957Z,4.70
2023-05-13T21:26:13.451Z,5.15
2023-05-13T21:28:40.629Z,4.82
2023-05-13T21:31:07.487Z,4.25
2023-05-13T21:33:34.543Z,4.80
2023-05-13T21:36:01.379Z,4.43
2023-05-13T21:38:28.434Z,4.60
2023-05-13T21:40:55.458Z,4.85
2023-05-13T21:43:22.214Z,4.50
2023-05-13T21:45:49.466Z,4.70
2023-05-13T21:48:16.785Z,4.80
2023-05-13T21:50:43.800Z,5.32
2023-05-13T21:53:10.749Z,5.20
2023-05-13T21:55:37.749Z,5.03
2023-05-13T21:58:04.593Z,5.05
2023-05-13T22:00:31.835Z,5.55
2023-05-13T22:03:00.692Z,5.40
2023-05-13T22:05:27.893Z,5.70
2023-05-13T22:07:54.621Z,5.18
2023-05-13T22:10:21.597Z,5.43
2023-05-13T22:12:48.745Z,5.13
2023-05-13T22:15:15.932Z,5.53
2023-05-13T22:17:42.977Z,6.00
2023-05-13T22:20:10.181Z,6.00
2023-05-13T22:22:36.950Z,6.30
2023-05-13T22:25:04.059Z,5.55
2023-05-13T22:27:31.166Z,6.43
2023-05-13T22:29:58.048Z,6.15
2023-05-13T22:32:25.270Z,6.45
2023-05-13T22:34:52.104Z,7.13
2023-05-13T22:37:19.091Z,6.03
2023-05-13T22:39:46.066Z,6.50
2023-05-13T22:42:12.950Z,6.70
2023-05-13T22:44:39.674Z,6.57
2023-05-13T22:47:06.854Z,6.65
2023-05-13T22:49:33.573Z,6.80
2023-05-13T22:52:00.418Z,6.85
2023-05-13T22:54:28.634Z,7.30
2023-05-13T22:56:55.502Z,6.60
2023-05-13T22:59:22.242Z,6.18
2023-05-13T23:01:49.062Z,6.50
2023-05-13T23:04:16.031Z,7.07
2023-05-13T23:06:42.805Z,6.90
2023-05-13T23:09:10.538Z,7.97
2023-05-13T23:11:37.450Z,7.25
2023-05-13T23:14:04.445Z,7.30
2023-05-13T23:16:31.259Z,6.97
2023-05-13T23:18:58.140Z,7.18
2023-05-13T23:21:25.020Z,7.60
2023-05-13T23:23:52.776Z,7.85
2023-05-13T23:26:19.517Z,7.70
2023-05-13T23:28:46.319Z,7.93
2023-05-13T23:31:13.072Z,6.60
2023-05-13T23:33:39.841Z,6.53
2023-05-13T23:36:06.924Z,7.53
2023-05-13T23:38:33.767Z,7.57
2023-05-13T23:41:00.486Z,7.25
2023-05-13T23:43:27.223Z,7.70
2023-05-13T23:45:54.464Z,8.60
2023-05-13T23:48:21.257Z,7.20
2023-05-13T23:50:48.139Z,7.65
2023-05-13T23:53:16.410Z,7.38
2023-05-13T23:55:43.173Z,7.95
2023-05-13T23:58:09.994Z,7.95
